sensor_id;sensor_type;location;lat;lon;timestamp;pressure;altitude;pressure_sealevel;temperature;humidity
36138;BME280;22194;50.046;21.954;2022-08-11T00:02:35;99671.05;;;15.51;48.70
36138;BME280;22194;50.046;21.954;2022-08-11T00:05:07;99665.47;;;15.45;48.79
36138;BME280;22194;50.046;21.954;2022-08-11T00:07:50;99667.59;;;15.43;48.80
36138;BME280;22194;50.046;21.954;2022-08-11T00:10:27;99667.27;;;15.36;48.89
36138;BME280;22194;50.046;21.954;2022-08-11T00:13:02;99667.46;;;15.34;49.00
36138;BME280;22194;50.046;21.954;2022-08-11T00:15:42;99668.17;;;15.29;49.07
36138;BME280;22194;50.046;21.954;2022-08-11T00:18:11;99664.30;;;15.27;49.16
36138;BME280;22194;50.046;21.954;2022-08-11T00:20:41;99659.77;;;15.23;49.16
36138;BME280;22194;50.046;21.954;2022-08-11T00:23:17;99658.48;;;15.21;49.34
36138;BME280;22194;50.046;21.954;2022-08-11T00:25:48;99659.91;;;15.19;49.28
36138;BME280;22194;50.046;21.954;2022-08-11T00:28:32;99658.92;;;15.11;49.34
36138;BME280;22194;50.046;21.954;2022-08-11T00:31:06;99660.68;;;15.05;49.51
36138;BME280;22194;50.046;21.954;2022-08-11T00:33:38;99658.20;;;15.02;49.63
36138;BME280;22194;50.046;21.954;2022-08-11T00:36:15;99661.21;;;15.01;49.68
36138;BME280;22194;50.046;21.954;2022-08-11T00:38:50;99658.06;;;14.98;49.79
36138;BME280;22194;50.046;21.954;2022-08-11T00:41:33;99658.90;;;14.92;49.84
36138;BME280;22194;50.046;21.954;2022-08-11T00:46:49;99662.23;;;14.83;50.09
36138;BME280;22194;50.046;21.954;2022-08-11T00:49:38;99661.88;;;14.82;50.10
36138;BME280;22194;50.046;21.954;2022-08-11T01:15:31;99652.59;;;14.54;50.91
36138;BME280;22194;50.046;21.954;2022-08-11T01:18:35;99655.67;;;14.52;50.95
36138;BME280;22194;50.046;21.954;2022-08-11T01:21:31;99655.60;;;14.48;51.03
36138;BME280;22194;50.046;21.954;2022-08-11T01:27:41;99650.84;;;14.40;51.22
36138;BME280;22194;50.046;21.954;2022-08-11T01:30:42;99649.91;;;14.38;51.26
36138;BME280;22194;50.046;21.954;2022-08-11T01:33:46;99649.84;;;14.33;51.35
36138;BME280;22194;50.046;21.954;2022-08-11T01:39:59;99643.35;;;14.24;51.60
36138;BME280;22194;50.046;21.954;2022-08-11T01:43:09;99640.38;;;14.19;51.70
36138;BME280;22194;50.046;21.954;2022-08-11T01:46:21;99643.04;;;14.17;51.86
36138;BME280;22194;50.046;21.954;2022-08-11T01:49:08;99642.88;;;14.17;51.94
36138;BME280;22194;50.046;21.954;2022-08-11T02:05:49;99640.66;;;14.11;52.23
36138;BME280;22194;50.046;21.954;2022-08-11T02:08:34;99642.14;;;14.08;52.20
36138;BME280;22194;50.046;21.954;2022-08-11T02:11:23;99640.05;;;14.05;52.22
36138;BME280;22194;50.046;21.954;2022-08-11T02:17:06;99637.33;;;13.94;52.40
36138;BME280;22194;50.046;21.954;2022-08-11T02:19:53;99636.79;;;13.89;52.62
36138;BME280;22194;50.046;21.954;2022-08-11T02:28:34;99644.89;;;13.84;52.73
36138;BME280;22194;50.046;21.954;2022-08-11T02:31:24;99645.98;;;13.81;52.86
36138;BME280;22194;50.046;21.954;2022-08-11T02:34:55;99652.75;;;13.79;52.88
36138;BME280;22194;50.046;21.954;2022-08-11T02:40:15;99649.10;;;13.70;52.96
36138;BME280;22194;50.046;21.954;2022-08-11T02:45:36;99640.73;;;13.63;52.94
36138;BME280;22194;50.046;21.954;2022-08-11T02:48:20;99641.44;;;13.59;53.17
36138;BME280;22194;50.046;21.954;2022-08-11T02:51:33;99643.22;;;13.54;53.28
36138;BME280;22194;50.046;21.954;2022-08-11T02:54:16;99649.30;;;13.54;53.37
36138;BME280;22194;50.046;21.954;2022-08-11T02:57:01;99652.38;;;13.53;53.37
36138;BME280;22194;50.046;21.954;2022-08-11T03:08:26;99647.66;;;13.42;53.68
36138;BME280;22194;50.046;21.954;2022-08-11T03:11:04;99651.71;;;13.43;53.83
36138;BME280;22194;50.046;21.954;2022-08-11T03:17:05;99658.38;;;13.42;53.91
36138;BME280;22194;50.046;21.954;2022-08-11T03:19:48;99655.92;;;13.38;53.93
36138;BME280;22194;50.046;21.954;2022-08-11T03:22:35;99657.61;;;13.40;54.08
36138;BME280;22194;50.046;21.954;2022-08-11T03:27:51;99658.94;;;13.41;54.05
36138;BME280;22194;50.046;21.954;2022-08-11T03:33:16;99663.00;;;13.42;54.32
36138;BME280;22194;50.046;21.954;2022-08-11T03:42:42;99663.76;;;13.39;54.55
36138;BME280;22194;50.046;21.954;2022-08-11T03:45:45;99661.70;;;13.40;54.59
36138;BME280;22194;50.046;21.954;2022-08-11T03:51:30;99665.05;;;13.38;54.57
36138;BME280;22194;50.046;21.954;2022-08-11T03:54:37;99658.40;;;13.36;54.71
36138;BME280;22194;50.046;21.954;2022-08-11T04:06:37;99672.46;;;13.36;54.98
36138;BME280;22194;50.046;21.954;2022-08-11T04:15:28;99667.30;;;13.48;55.18
36138;BME280;22194;50.046;21.954;2022-08-11T04:19:00;99668.59;;;13.55;55.32
36138;BME280;22194;50.046;21.954;2022-08-11T04:30:17;99649.15;;;13.70;55.72
36138;BME280;22194;50.046;21.954;2022-08-11T04:33:32;99647.97;;;13.76;55.67
36138;BME280;22194;50.046;21.954;2022-08-11T04:36:25;99650.82;;;13.83;55.88
36138;BME280;22194;50.046;21.954;2022-08-11T04:42:47;99650.50;;;13.99;56.00
36138;BME280;22194;50.046;21.954;2022-08-11T04:52:16;99646.41;;;14.20;56.32
36138;BME280;22194;50.046;21.954;2022-08-11T05:01:47;99649.36;;;14.41;56.55
36138;BME280;22194;50.046;21.954;2022-08-11T05:15:35;99658.07;;;14.71;56.67
36138;BME280;22194;50.046;21.954;2022-08-11T05:18:28;99661.08;;;14.78;56.79
36138;BME280;22194;50.046;21.954;2022-08-11T05:21:16;99657.06;;;14.88;56.75
36138;BME280;22194;50.046;21.954;2022-08-11T05:24:51;99663.17;;;14.99;56.80
36138;BME280;22194;50.046;21.954;2022-08-11T05:28:09;99661.05;;;15.10;56.96
36138;BME280;22194;50.046;21.954;2022-08-11T05:30:59;99661.33;;;15.19;56.94
36138;BME280;22194;50.046;21.954;2022-08-11T05:33:50;99657.88;;;15.31;56.91
36138;BME280;22194;50.046;21.954;2022-08-11T05:36:46;99658.13;;;15.39;57.03
36138;BME280;22194;50.046;21.954;2022-08-11T05:39:23;99665.65;;;15.52;56.99
36138;BME280;22194;50.046;21.954;2022-08-11T05:42:10;99665.58;;;15.63;57.05
36138;BME280;22194;50.046;21.954;2022-08-11T05:45:01;99659.90;;;15.69;57.29
36138;BME280;22194;50.046;21.954;2022-08-11T05:47:49;99660.11;;;15.79;57.25
36138;BME280;22194;50.046;21.954;2022-08-11T05:50:38;99660.98;;;15.88;57.21
36138;BME280;22194;50.046;21.954;2022-08-11T05:53:25;99662.34;;;15.95;57.20
36138;BME280;22194;50.046;21.954;2022-08-11T05:56:13;99658.40;;;16.02;57.28
36138;BME280;22194;50.046;21.954;2022-08-11T05:58:51;99657.86;;;16.10;57.21
36138;BME280;22194;50.046;21.954;2022-08-11T06:03:52;99653.80;;;16.28;57.20
36138;BME280;22194;50.046;21.954;2022-08-11T06:06:56;99652.94;;;16.38;57.37
36138;BME280;22194;50.046;21.954;2022-08-11T06:09:33;99656.08;;;16.47;57.40
36138;BME280;22194;50.046;21.954;2022-08-11T06:12:07;99652.95;;;16.54;57.42
36138;BME280;22194;50.046;21.954;2022-08-11T06:14:43;99652.95;;;16.63;57.36
36138;BME280;22194;50.046;21.954;2022-08-11T06:17:13;99652.45;;;16.70;57.40
36138;BME280;22194;50.046;21.954;2022-08-11T06:19:46;99650.71;;;16.78;57.40
36138;BME280;22194;50.046;21.954;2022-08-11T06:22:19;99653.20;;;16.88;57.44
36138;BME280;22194;50.046;21.954;2022-08-11T06:24:56;99649.43;;;17.01;57.40
36138;BME280;22194;50.046;21.954;2022-08-11T06:27:33;99653.98;;;17.14;57.49
36138;BME280;22194;50.046;21.954;2022-08-11T06:30:03;99657.28;;;17.27;57.41
36138;BME280;22194;50.046;21.954;2022-08-11T06:32:45;99656.69;;;17.39;57.56
36138;BME280;22194;50.046;21.954;2022-08-11T06:35:43;99656.85;;;17.53;57.44
36138;BME280;22194;50.046;21.954;2022-08-11T06:41:03;99651.52;;;17.85;57.43
36138;BME280;22194;50.046;21.954;2022-08-11T06:46:36;99652.52;;;18.33;57.65
36138;BME280;22194;50.046;21.954;2022-08-11T06:49:10;99650.58;;;18.51;57.44
36138;BME280;22194;50.046;21.954;2022-08-11T06:52:09;99652.00;;;18.68;57.36
36138;BME280;22194;50.046;21.954;2022-08-11T06:55:05;99650.91;;;18.85;57.55
36138;BME280;22194;50.046;21.954;2022-08-11T06:57:37;99651.89;;;19.01;57.35
36138;BME280;22194;50.046;21.954;2022-08-11T07:00:26;99648.60;;;19.21;57.45
36138;BME280;22194;50.046;21.954;2022-08-11T07:03:09;99650.35;;;19.44;57.43
36138;BME280;22194;50.046;21.954;2022-08-11T07:06:01;99646.77;;;19.67;57.35
36138;BME280;22194;50.046;21.954;2022-08-11T07:14:35;99633.89;;;20.57;56.80
36138;BME280;22194;50.046;21.954;2022-08-11T07:17:27;99634.06;;;21.82;55.72
36138;BME280;22194;50.046;21.954;2022-08-11T07:20:00;99630.96;;;23.21;55.49
36138;BME280;22194;50.046;21.954;2022-08-11T07:22:53;99625.10;;;24.11;55.85
36138;BME280;22194;50.046;21.954;2022-08-11T07:25:41;99623.34;;;25.86;54.84
36138;BME280;22194;50.046;21.954;2022-08-11T07:28:30;99624.89;;;27.11;54.81
36138;BME280;22194;50.046;21.954;2022-08-11T07:31:25;99624.86;;;27.64;55.40
36138;BME280;22194;50.046;21.954;2022-08-11T07:34:16;99625.23;;;28.20;55.18
36138;BME280;22194;50.046;21.954;2022-08-11T07:36:51;99621.54;;;28.71;54.65
36138;BME280;22194;50.046;21.954;2022-08-11T07:39:25;99619.59;;;28.95;54.53
36138;BME280;22194;50.046;21.954;2022-08-11T07:41:56;99618.05;;;29.24;54.19
36138;BME280;22194;50.046;21.954;2022-08-11T07:44:26;99619.27;;;29.35;53.77
36138;BME280;22194;50.046;21.954;2022-08-11T07:47:02;99620.86;;;29.32;53.54
36138;BME280;22194;50.046;21.954;2022-08-11T07:49:50;99622.33;;;30.03;52.60
36138;BME280;22194;50.046;21.954;2022-08-11T07:52:39;99620.15;;;30.88;52.35
36138;BME280;22194;50.046;21.954;2022-08-11T07:55:12;99613.55;;;31.02;52.45
36138;BME280;22194;50.046;21.954;2022-08-11T07:57:44;99613.27;;;30.77;52.46
36138;BME280;22194;50.046;21.954;2022-08-11T08:00:56;99609.90;;;30.39;52.01
36138;BME280;22194;50.046;21.954;2022-08-11T08:03:49;99617.06;;;30.05;51.67
36138;BME280;22194;50.046;21.954;2022-08-11T08:06:37;99618.77;;;29.73;51.03
36138;BME280;22194;50.046;21.954;2022-08-11T08:09:24;99621.51;;;29.81;50.38
36138;BME280;22194;50.046;21.954;2022-08-11T08:12:11;99613.58;;;29.77;50.24
36138;BME280;22194;50.046;21.954;2022-08-11T08:15:00;99614.61;;;29.66;49.89
36138;BME280;22194;50.046;21.954;2022-08-11T08:17:46;99611.57;;;29.65;49.48
36138;BME280;22194;50.046;21.954;2022-08-11T08:20:48;99614.25;;;29.82;49.08
36138;BME280;22194;50.046;21.954;2022-08-11T08:23:20;99613.97;;;30.28;48.74
36138;BME280;22194;50.046;21.954;2022-08-11T08:26:03;99612.39;;;30.77;48.20
36138;BME280;22194;50.046;21.954;2022-08-11T08:28:54;99616.16;;;31.01;48.01
36138;BME280;22194;50.046;21.954;2022-08-11T08:31:44;99605.94;;;31.80;47.46
36138;BME280;22194;50.046;21.954;2022-08-11T08:34:16;99606.14;;;32.23;47.55
36138;BME280;22194;50.046;21.954;2022-08-11T08:36:47;99599.59;;;32.28;47.09
36138;BME280;22194;50.046;21.954;2022-08-11T08:39:20;99602.61;;;32.32;46.61
36138;BME280;22194;50.046;21.954;2022-08-11T08:41:52;99591.89;;;32.49;46.56
36138;BME280;22194;50.046;21.954;2022-08-11T08:44:21;99594.25;;;32.62;45.79
36138;BME280;22194;50.046;21.954;2022-08-11T08:47:17;99592.86;;;32.16;46.11
36138;BME280;22194;50.046;21.954;2022-08-11T08:50:11;99599.52;;;31.67;45.38
36138;BME280;22194;50.046;21.954;2022-08-11T08:53:10;99597.30;;;31.38;44.98
36138;BME280;22194;50.046;21.954;2022-08-11T08:55:39;99586.47;;;32.19;44.54
36138;BME280;22194;50.046;21.954;2022-08-11T08:58:12;99581.00;;;33.03;43.88
36138;BME280;22194;50.046;21.954;2022-08-11T09:00:44;99581.45;;;33.38;43.89
36138;BME280;22194;50.046;21.954;2022-08-11T09:03:13;99588.00;;;33.09;43.93
36138;BME280;22194;50.046;21.954;2022-08-11T09:06:01;99585.33;;;32.54;43.40
36138;BME280;22194;50.046;21.954;2022-08-11T09:08:31;99579.76;;;32.12;43.44
36138;BME280;22194;50.046;21.954;2022-08-11T09:11:01;99572.55;;;31.87;43.15
36138;BME280;22194;50.046;21.954;2022-08-11T09:13:50;99566.82;;;32.23;42.10
36138;BME280;22194;50.046;21.954;2022-08-11T09:16:35;99558.55;;;32.55;42.12
36138;BME280;22194;50.046;21.954;2022-08-11T09:19:06;99560.77;;;32.45;41.98
36138;BME280;22194;50.046;21.954;2022-08-11T09:21:39;99549.77;;;32.22;41.99
36138;BME280;22194;50.046;21.954;2022-08-11T09:24:17;99546.69;;;32.25;41.68
36138;BME280;22194;50.046;21.954;2022-08-11T09:27:06;99547.70;;;32.33;41.33
36138;BME280;22194;50.046;21.954;2022-08-11T09:29:37;99556.56;;;32.90;41.26
36138;BME280;22194;50.046;21.954;2022-08-11T09:32:05;99556.35;;;33.66;40.90
36138;BME280;22194;50.046;21.954;2022-08-11T09:34:36;99556.12;;;33.93;40.69
36138;BME280;22194;50.046;21.954;2022-08-11T09:37:04;99560.27;;;33.61;40.85
36138;BME280;22194;50.046;21.954;2022-08-11T09:40:24;99563.52;;;33.03;40.08
36138;BME280;22194;50.046;21.954;2022-08-11T09:43:18;99561.28;;;32.23;39.48
36138;BME280;22194;50.046;21.954;2022-08-11T09:46:05;99563.90;;;31.58;39.69
36138;BME280;22194;50.046;21.954;2022-08-11T09:48:38;99565.09;;;31.18;39.52
36138;BME280;22194;50.046;21.954;2022-08-11T09:51:07;99559.89;;;30.69;39.20
36138;BME280;22194;50.046;21.954;2022-08-11T09:53:41;99563.20;;;30.13;39.10
36138;BME280;22194;50.046;21.954;2022-08-11T09:56:30;99562.35;;;29.59;38.76
36138;BME280;22194;50.046;21.954;2022-08-11T09:59:20;99562.84;;;29.14;38.82
36138;BME280;22194;50.046;21.954;2022-08-11T10:01:53;99569.58;;;28.91;38.95
36138;BME280;22194;50.046;21.954;2022-08-11T10:04:25;99564.88;;;28.67;38.81
36138;BME280;22194;50.046;21.954;2022-08-11T10:07:01;99560.64;;;28.47;38.62
36138;BME280;22194;50.046;21.954;2022-08-11T10:12:08;99573.29;;;27.85;38.76
36138;BME280;22194;50.046;21.954;2022-08-11T10:14:40;99579.80;;;27.57;38.70
36138;BME280;22194;50.046;21.954;2022-08-11T10:17:31;99572.31;;;27.14;38.80
36138;BME280;22194;50.046;21.954;2022-08-11T10:20:00;99576.79;;;26.76;38.51
36138;BME280;22194;50.046;21.954;2022-08-11T10:22:33;99579.49;;;26.48;38.69
36138;BME280;22194;50.046;21.954;2022-08-11T10:25:20;99587.42;;;26.28;38.97
36138;BME280;22194;50.046;21.954;2022-08-11T10:28:08;99586.75;;;26.10;38.90
36138;BME280;22194;50.046;21.954;2022-08-11T10:30:57;99585.30;;;25.84;38.66
36138;BME280;22194;50.046;21.954;2022-08-11T10:33:44;99587.67;;;25.34;38.67
36138;BME280;22194;50.046;21.954;2022-08-11T10:36:32;99586.39;;;25.06;38.91
36138;BME280;22194;50.046;21.954;2022-08-11T10:39:03;99583.09;;;24.89;39.25
36138;BME280;22194;50.046;21.954;2022-08-11T10:41:33;99579.55;;;24.76;39.24
36138;BME280;22194;50.046;21.954;2022-08-11T10:44:42;99573.16;;;24.54;39.51
36138;BME280;22194;50.046;21.954;2022-08-11T10:47:13;99569.86;;;24.47;39.89
36138;BME280;22194;50.046;21.954;2022-08-11T10:50:01;99565.52;;;24.44;39.85
36138;BME280;22194;50.046;21.954;2022-08-11T10:52:49;99555.70;;;24.35;39.84
36138;BME280;22194;50.046;21.954;2022-08-11T10:55:37;99555.72;;;24.28;40.16
36138;BME280;22194;50.046;21.954;2022-08-11T10:58:25;99558.48;;;24.27;40.23
36138;BME280;22194;50.046;21.954;2022-08-11T11:01:13;99556.76;;;24.24;40.35
36138;BME280;22194;50.046;21.954;2022-08-11T11:03:42;99557.98;;;24.25;40.48
36138;BME280;22194;50.046;21.954;2022-08-11T11:06:21;99559.54;;;24.26;40.68
36138;BME280;22194;50.046;21.954;2022-08-11T11:09:11;99545.10;;;24.27;40.82
36138;BME280;22194;50.046;21.954;2022-08-11T11:11:50;99545.32;;;24.31;41.18
36138;BME280;22194;50.046;21.954;2022-08-11T11:14:40;99544.23;;;24.37;41.18
36138;BME280;22194;50.046;21.954;2022-08-11T11:17:58;99541.30;;;24.28;41.26
36138;BME280;22194;50.046;21.954;2022-08-11T11:20:40;99537.16;;;24.28;41.54
36138;BME280;22194;50.046;21.954;2022-08-11T11:23:27;99539.71;;;24.34;41.68
36138;BME280;22194;50.046;21.954;2022-08-11T11:28:57;99530.10;;;24.35;41.76
36138;BME280;22194;50.046;21.954;2022-08-11T11:36:49;99524.10;;;24.30;41.91
36138;BME280;22194;50.046;21.954;2022-08-11T11:39:23;99527.19;;;24.33;42.22
36138;BME280;22194;50.046;21.954;2022-08-11T11:41:59;99522.59;;;24.40;42.37
36138;BME280;22194;50.046;21.954;2022-08-11T11:44:30;99516.45;;;24.45;42.35
36138;BME280;22194;50.046;21.954;2022-08-11T11:46:59;99505.60;;;24.51;42.41
36138;BME280;22194;50.046;21.954;2022-08-11T11:49:29;99502.61;;;24.63;42.79
36138;BME280;22194;50.046;21.954;2022-08-11T11:51:59;99496.91;;;24.73;42.75
36138;BME280;22194;50.046;21.954;2022-08-11T11:54:30;99496.02;;;24.80;42.50
36138;BME280;22194;50.046;21.954;2022-08-11T11:56:59;99487.87;;;24.75;42.71
36138;BME280;22194;50.046;21.954;2022-08-11T11:59:50;99482.54;;;24.76;43.03
36138;BME280;22194;50.046;21.954;2022-08-11T12:02:39;99472.00;;;24.72;43.25
36138;BME280;22194;50.046;21.954;2022-08-11T12:05:08;99473.16;;;24.80;43.26
36138;BME280;22194;50.046;21.954;2022-08-11T12:07:37;99471.95;;;24.87;43.35
36138;BME280;22194;50.046;21.954;2022-08-11T12:10:45;99475.15;;;24.87;43.43
36138;BME280;22194;50.046;21.954;2022-08-11T12:13:17;99474.98;;;24.91;43.49
36138;BME280;22194;50.046;21.954;2022-08-11T12:16:04;99467.98;;;25.04;43.44
36138;BME280;22194;50.046;21.954;2022-08-11T12:18:54;99472.77;;;25.15;43.41
36138;BME280;22194;50.046;21.954;2022-08-11T12:21:24;99474.89;;;25.25;43.51
36138;BME280;22194;50.046;21.954;2022-08-11T12:23:55;99478.10;;;25.30;43.52
36138;BME280;22194;50.046;21.954;2022-08-11T12:26:42;99474.16;;;25.24;43.82
36138;BME280;22194;50.046;21.954;2022-08-11T12:29:36;99468.95;;;25.15;43.75
36138;BME280;22194;50.046;21.954;2022-08-11T12:32:10;99462.91;;;25.09;43.85
36138;BME280;22194;50.046;21.954;2022-08-11T12:34:38;99463.92;;;25.04;43.84
36138;BME280;22194;50.046;21.954;2022-08-11T12:37:07;99467.75;;;25.00;43.91
36138;BME280;22194;50.046;21.954;2022-08-11T12:39:46;99467.66;;;24.95;43.80
36138;BME280;22194;50.046;21.954;2022-08-11T12:43:01;99465.20;;;24.86;43.86
36138;BME280;22194;50.046;21.954;2022-08-11T12:46:08;99463.52;;;24.82;43.91
36138;BME280;22194;50.046;21.954;2022-08-11T12:48:43;99460.23;;;24.76;43.82
36138;BME280;22194;50.046;21.954;2022-08-11T12:51:36;99458.66;;;24.67;43.83
36138;BME280;22194;50.046;21.954;2022-08-11T12:54:47;99454.90;;;24.59;43.94
36138;BME280;22194;50.046;21.954;2022-08-11T12:57:44;99451.92;;;24.51;43.88
36138;BME280;22194;50.046;21.954;2022-08-11T13:00:31;99452.82;;;24.39;43.79
36138;BME280;22194;50.046;21.954;2022-08-11T13:03:19;99451.78;;;24.32;44.12
36138;BME280;22194;50.046;21.954;2022-08-11T13:06:06;99442.06;;;24.34;44.06
36138;BME280;22194;50.046;21.954;2022-08-11T13:08:37;99445.00;;;24.35;43.83
36138;BME280;22194;50.046;21.954;2022-08-11T13:11:08;99444.95;;;24.37;43.90
36138;BME280;22194;50.046;21.954;2022-08-11T13:14:15;99440.59;;;24.38;43.92
36138;BME280;22194;50.046;21.954;2022-08-11T13:16:44;99439.05;;;24.38;43.86
36138;BME280;22194;50.046;21.954;2022-08-11T13:19:32;99434.39;;;24.36;43.82
36138;BME280;22194;50.046;21.954;2022-08-11T13:22:01;99428.63;;;24.34;43.74
36138;BME280;22194;50.046;21.954;2022-08-11T13:24:34;99422.86;;;24.38;43.92
36138;BME280;22194;50.046;21.954;2022-08-11T13:27:03;99415.38;;;24.37;43.86
36138;BME280;22194;50.046;21.954;2022-08-11T13:29:31;99412.60;;;24.33;43.80
36138;BME280;22194;50.046;21.954;2022-08-11T13:31:59;99410.36;;;24.34;43.78
36138;BME280;22194;50.046;21.954;2022-08-11T13:34:28;99410.09;;;24.41;43.91
36138;BME280;22194;50.046;21.954;2022-08-11T13:37:00;99409.77;;;24.50;43.74
36138;BME280;22194;50.046;21.954;2022-08-11T13:39:30;99404.05;;;24.57;43.76
36138;BME280;22194;50.046;21.954;2022-08-11T13:42:00;99401.16;;;24.57;43.70
36138;BME280;22194;50.046;21.954;2022-08-11T13:44:31;99402.98;;;24.57;43.84
36138;BME280;22194;50.046;21.954;2022-08-11T13:47:02;99403.53;;;24.64;44.00
36138;BME280;22194;50.046;21.954;2022-08-11T13:49:33;99408.70;;;24.64;43.98
36138;BME280;22194;50.046;21.954;2022-08-11T13:52:03;99406.64;;;24.61;43.99
36138;BME280;22194;50.046;21.954;2022-08-11T13:54:35;99412.13;;;24.56;44.03
36138;BME280;22194;50.046;21.954;2022-08-11T13:57:06;99419.52;;;24.52;44.18
36138;BME280;22194;50.046;21.954;2022-08-11T13:59:55;99458.89;;;24.52;44.28
36138;BME280;22194;50.046;21.954;2022-08-11T14:02:41;99431.59;;;23.50;43.41
36138;BME280;22194;50.046;21.954;2022-08-11T14:05:13;99423.89;;;22.24;44.18
36138;BME280;22194;50.046;21.954;2022-08-11T14:07:50;99431.46;;;21.62;44.33
36138;BME280;22194;50.046;21.954;2022-08-11T14:10:21;99425.29;;;21.27;45.52
36138;BME280;22194;50.046;21.954;2022-08-11T14:12:58;99419.15;;;21.14;45.98
36138;BME280;22194;50.046;21.954;2022-08-11T14:15:46;99410.99;;;20.96;45.90
36138;BME280;22194;50.046;21.954;2022-08-11T14:18:18;99414.84;;;20.84;45.84
36138;BME280;22194;50.046;21.954;2022-08-11T14:20:53;99418.35;;;20.71;45.61
36138;BME280;22194;50.046;21.954;2022-08-11T14:23:43;99417.61;;;20.57;46.24
36138;BME280;22194;50.046;21.954;2022-08-11T14:26:14;99435.95;;;20.48;46.60
36138;BME280;22194;50.046;21.954;2022-08-11T14:29:08;99489.63;;;20.43;46.43
36138;BME280;22194;50.046;21.954;2022-08-11T14:31:43;99520.98;;;20.26;46.53
36138;BME280;22194;50.046;21.954;2022-08-11T14:34:12;99510.30;;;20.08;46.74
36138;BME280;22194;50.046;21.954;2022-08-11T14:36:44;99490.89;;;19.86;46.68
36138;BME280;22194;50.046;21.954;2022-08-11T14:39:15;99493.55;;;19.66;46.97
36138;BME280;22194;50.046;21.954;2022-08-11T14:41:52;99493.38;;;19.54;47.03
36138;BME280;22194;50.046;21.954;2022-08-11T14:44:44;99491.73;;;19.39;47.33
36138;BME280;22194;50.046;21.954;2022-08-11T14:47:52;99490.16;;;19.29;47.67
36138;BME280;22194;50.046;21.954;2022-08-11T14:50:24;99492.39;;;19.21;47.91
36138;BME280;22194;50.046;21.954;2022-08-11T14:52:55;99478.85;;;19.13;47.69
36138;BME280;22194;50.046;21.954;2022-08-11T14:55:26;99482.20;;;19.05;48.03
36138;BME280;22194;50.046;21.954;2022-08-11T14:58:16;99478.44;;;18.98;48.14
36138;BME280;22194;50.046;21.954;2022-08-11T15:00:45;99474.27;;;18.90;48.15
36138;BME280;22194;50.046;21.954;2022-08-11T15:03:14;99473.82;;;18.82;48.41
36138;BME280;22194;50.046;21.954;2022-08-11T15:05:54;99476.32;;;18.79;48.54
36138;BME280;22194;50.046;21.954;2022-08-11T15:08:28;99471.91;;;18.75;48.96
36138;BME280;22194;50.046;21.954;2022-08-11T15:11:17;99484.73;;;18.72;49.03
36138;BME280;22194;50.046;21.954;2022-08-11T15:14:05;99491.40;;;18.70;49.19
36138;BME280;22194;50.046;21.954;2022-08-11T15:16:40;99497.06;;;18.69;49.44
36138;BME280;22194;50.046;21.954;2022-08-11T15:19:28;99496.42;;;18.70;49.83
36138;BME280;22194;50.046;21.954;2022-08-11T15:22:08;99502.50;;;18.72;50.18
36138;BME280;22194;50.046;21.954;2022-08-11T15:24:58;99504.27;;;18.74;50.38
36138;BME280;22194;50.046;21.954;2022-08-11T15:27:29;99500.64;;;18.75;50.44
36138;BME280;22194;50.046;21.954;2022-08-11T15:30:16;99498.54;;;18.72;50.64
36138;BME280;22194;50.046;21.954;2022-08-11T15:33:04;99495.77;;;18.73;50.65
36138;BME280;22194;50.046;21.954;2022-08-11T15:35:53;99491.73;;;18.75;51.07
36138;BME280;22194;50.046;21.954;2022-08-11T15:38:44;99483.73;;;18.75;50.88
36138;BME280;22194;50.046;21.954;2022-08-11T15:41:15;99476.14;;;18.73;51.04
36138;BME280;22194;50.046;21.954;2022-08-11T15:44:06;99466.85;;;18.73;51.29
36138;BME280;22194;50.046;21.954;2022-08-11T15:47:17;99472.11;;;18.73;51.40
36138;BME280;22194;50.046;21.954;2022-08-11T15:49:50;99477.40;;;18.74;51.55
36138;BME280;22194;50.046;21.954;2022-08-11T15:52:46;99497.60;;;18.74;51.62
36138;BME280;22194;50.046;21.954;2022-08-11T15:55:15;99497.98;;;18.74;51.86
36138;BME280;22194;50.046;21.954;2022-08-11T15:57:46;99498.89;;;18.74;51.73
36138;BME280;22194;50.046;21.954;2022-08-11T16:00:35;99497.29;;;18.74;51.90
36138;BME280;22194;50.046;21.954;2022-08-11T16:03:35;99495.01;;;18.73;52.18
36138;BME280;22194;50.046;21.954;2022-08-11T16:06:38;99491.35;;;18.74;52.55
36138;BME280;22194;50.046;21.954;2022-08-11T16:09:27;99487.34;;;18.72;52.51
36138;BME280;22194;50.046;21.954;2022-08-11T16:12:20;99481.87;;;18.70;52.54
36138;BME280;22194;50.046;21.954;2022-08-11T16:15:00;99482.02;;;18.69;52.50
36138;BME280;22194;50.046;21.954;2022-08-11T16:17:49;99479.41;;;18.60;52.53
36138;BME280;22194;50.046;21.954;2022-08-11T16:20:21;99487.06;;;18.57;52.69
36138;BME280;22194;50.046;21.954;2022-08-11T16:22:51;99484.45;;;18.53;52.92
36138;BME280;22194;50.046;21.954;2022-08-11T16:25:35;99483.67;;;18.48;52.84
36138;BME280;22194;50.046;21.954;2022-08-11T16:28:24;99485.80;;;18.41;52.99
36138;BME280;22194;50.046;21.954;2022-08-11T16:30:53;99488.42;;;18.35;52.86
36138;BME280;22194;50.046;21.954;2022-08-11T16:33:24;99487.91;;;18.25;53.16
36138;BME280;22194;50.046;21.954;2022-08-11T16:36:13;99488.08;;;18.18;53.23
36138;BME280;22194;50.046;21.954;2022-08-11T16:39:02;99482.14;;;18.14;53.50
36138;BME280;22194;50.046;21.954;2022-08-11T16:41:32;99473.59;;;18.10;53.60
36138;BME280;22194;50.046;21.954;2022-08-11T16:44:20;99468.77;;;18.06;53.58
36138;BME280;22194;50.046;21.954;2022-08-11T16:47:11;99467.64;;;17.99;53.43
36138;BME280;22194;50.046;21.954;2022-08-11T16:49:46;99470.24;;;17.94;53.82
36138;BME280;22194;50.046;21.954;2022-08-11T16:52:21;99471.72;;;17.92;53.94
36138;BME280;22194;50.046;21.954;2022-08-11T16:54:50;99472.39;;;17.89;54.18
36138;BME280;22194;50.046;21.954;2022-08-11T16:57:24;99464.94;;;17.86;54.26